Ocean King D — V7TV6 — position and weather

sailwx.info

Track history (hours):
 
Tides and Currents Weather Stations Pressure Air Temp Water Temp Dewpoint Dewpoint Depression Visibility Wind Speed Wind Dir Waves Ship Positions

Ocean King D

Last reported at 2015-Jul-01 22:17 UTC. Time now 2015-Jul-02 00:51 UTC.
Position N 34°45' E 119°23'.

Length 190 m; draft 7.5 m.

Type: Cargo ship. MMSI: 538003892.

Date/timePositionNaut miles runAvg speedWind from/ knotsBaromVisibWave heightAir tempDewpointWater temp
2015-Jul-01 22:17N 34°45' E 119°23'6 7.8
2015-Jul-01 21:32N 34°44' E 119°30'10 9.6
2015-Jul-01 20:31N 34°49' E 119°40'8 8.2
2015-Jul-01 19:31N 34°53' E 119°49'1 0.7
2015-Jul-01 18:05N 34°54' E 119°48'0 0.1
2015-Jul-01 17:23N 34°54' E 119°48'0 0.1
2015-Jul-01 16:29N 34°54' E 119°48'0 0.0
2015-Jul-01 15:29N 34°54' E 119°48'0 0.0
2015-Jul-01 14:11N 34°54' E 119°48'0 0.0
2015-Jul-01 13:29N 34°54' E 119°48'0 0.0
2015-Jul-01 12:23N 34°54' E 119°48'0 0.1
2015-Jul-01 09:29N 34°54' E 119°48'0 0.0
2015-Jul-01 03:14N 34°54' E 119°48'0 0.0
2015-Jun-30 21:20N 34°54' E 119°48'0 0.0
2015-Jun-30 20:32N 34°54' E 119°48'0 0.0
2015-Jun-30 15:14N 34°54' E 119°48'  
2015-Jun-27 20:20N 34°54' E 119°48'0 0.1
2015-Jun-27 16:20N 34°54' E 119°48'0 0.0
2015-Jun-27 13:14N 34°54' E 119°48'0 0.0
2015-Jun-27 10:27N 34°54' E 119°48'0 0.0
2015-Jun-27 09:33N 34°54' E 119°48'0 0.0
2015-Jun-27 08:27N 34°54' E 119°48'0 0.0
2015-Jun-26 22:27N 34°54' E 119°48'0 0.1
2015-Jun-26 19:27N 34°54' E 119°48'0 0.1
2015-Jun-26 18:15N 34°54' E 119°48'0 0.1
2015-Jun-26 17:27N 34°54' E 119°48'0 0.1
2015-Jun-26 16:09N 34°54' E 119°48'0 0.0
2015-Jun-26 15:27N 34°54' E 119°48'0 0.0
2015-Jun-26 12:15N 34°54' E 119°48'0 0.0
2015-Jun-26 10:33N 34°54' E 119°48'0 0.2
2015-Jun-26 09:33N 34°54' E 119°48'0 0.1
2015-Jun-26 06:27N 34°54' E 119°48'0 0.1
2015-Jun-26 05:33N 34°54' E 119°48'0 0.0
2015-Jun-26 04:33N 34°54' E 119°48'0 0.1
2015-Jun-25 22:11N 34°54' E 119°48'4 5.7
2015-Jun-25 21:30N 34°54' E 119°53'22811.2
2015-Jun-25 01:13N 37°46' E 122°59'1012.9
2015-Jun-25 00:28N 37°50' E 122°48'1313.1
2015-Jun-24 23:29N 37°56' E 122°33'1213.2
2015-Jun-24 22:33N 38°01' E 122°19'1313.2
2015-Jun-24 21:33N 38°06' E 122°04'1312.7
2015-Jun-24 20:33N 38°11' E 121°49'1712.7
2015-Jun-24 19:12N 38°19' E 121°30'4910.5
2015-Jun-24 14:33N 38°13' E 120°28'1413.3
2015-Jun-24 13:32N 38°01' E 120°19'1313.1
2015-Jun-24 12:33N 37°50' E 120°12'1211.6
2015-Jun-24 11:33N 37°38' E 120°12'4 4.2
2015-Jun-24 10:34N 37°39' E 120°17'0 0.0
2015-Jun-24 09:33N 37°39' E 120°17'0 0.0
2015-Jun-24 08:33N 37°39' E 120°17'0 0.0
2015-Jun-24 07:28N 37°39' E 120°17'0 0.0
2015-Jun-24 06:28N 37°39' E 120°17'0 0.0
2015-Jun-24 05:28N 37°39' E 120°17'0 0.0
2015-Jun-24 04:28N 37°39' E 120°17'0 0.0
2015-Jun-24 03:28N 37°39' E 120°17'0 0.0
2015-Jun-24 02:28N 37°39' E 120°17'0 0.0
2015-Jun-24 01:28N 37°39' E 120°17'0 0.0
2015-Jun-24 00:22N 37°39' E 120°17'0 0.0
2015-Jun-23 23:28N 37°39' E 120°17'0 0.0
2015-Jun-23 22:22N 37°39' E 120°17'0 0.0
2015-Jun-23 20:28N 37°39' E 120°17'0 0.0
2015-Jun-23 19:28N 37°39' E 120°17'0 0.1
2015-Jun-23 19:04N 37°39' E 120°17'0 0.0
2015-Jun-22 19:28N 37°39' E 120°17'0 0.0
2015-Jun-22 18:28N 37°39' E 120°17'0 0.0
2015-Jun-22 17:28N 37°39' E 120°17'0 0.0
2015-Jun-22 16:28N 37°39' E 120°17'0 0.0
2015-Jun-22 15:28N 37°39' E 120°17'0 0.0
2015-Jun-22 14:28N 37°39' E 120°17'0 0.0
2015-Jun-22 13:28N 37°39' E 120°17'0 0.0
2015-Jun-22 12:28N 37°39' E 120°17'  
Track history (hours):
 
Tides and Currents Weather Stations Pressure Air Temp Water Temp Dewpoint Dewpoint Depression Visibility Wind Speed Wind Dir Waves Ship Positions

Ocean King D

Last reported at 2015-Jul-01 22:17 UTC. Time now 2015-Jul-02 00:51 UTC.
Position N 34°45' E 119°23'.

Length 190 m; draft 7.5 m.

Type: Cargo ship. MMSI: 538003892.

Date/timePositionNaut miles runAvg speedWind from/ knotsBaromVisibWave heightAir tempDewpointWater temp
2015-Jul-01 22:17N 34°45' E 119°23'6 7.8
2015-Jul-01 21:32N 34°44' E 119°30'10 9.6
2015-Jul-01 20:31N 34°49' E 119°40'8 8.2
2015-Jul-01 19:31N 34°53' E 119°49'1 0.7
2015-Jul-01 18:05N 34°54' E 119°48'0 0.1
2015-Jul-01 17:23N 34°54' E 119°48'0 0.1
2015-Jul-01 16:29N 34°54' E 119°48'0 0.0
2015-Jul-01 15:29N 34°54' E 119°48'0 0.0
2015-Jul-01 14:11N 34°54' E 119°48'0 0.0
2015-Jul-01 13:29N 34°54' E 119°48'0 0.0
2015-Jul-01 12:23N 34°54' E 119°48'0 0.1
2015-Jul-01 09:29N 34°54' E 119°48'0 0.0
2015-Jul-01 03:14N 34°54' E 119°48'0 0.0
2015-Jun-30 21:20N 34°54' E 119°48'0 0.0
2015-Jun-30 20:32N 34°54' E 119°48'0 0.0
2015-Jun-30 15:14N 34°54' E 119°48'  
2015-Jun-27 20:20N 34°54' E 119°48'0 0.1
2015-Jun-27 16:20N 34°54' E 119°48'0 0.0
2015-Jun-27 13:14N 34°54' E 119°48'0 0.0
2015-Jun-27 10:27N 34°54' E 119°48'0 0.0
2015-Jun-27 09:33N 34°54' E 119°48'0 0.0
2015-Jun-27 08:27N 34°54' E 119°48'0 0.0
2015-Jun-26 22:27N 34°54' E 119°48'0 0.1
2015-Jun-26 19:27N 34°54' E 119°48'0 0.1
2015-Jun-26 18:15N 34°54' E 119°48'0 0.1
2015-Jun-26 17:27N 34°54' E 119°48'0 0.1
2015-Jun-26 16:09N 34°54' E 119°48'0 0.0
2015-Jun-26 15:27N 34°54' E 119°48'0 0.0
2015-Jun-26 12:15N 34°54' E 119°48'0 0.0
2015-Jun-26 10:33N 34°54' E 119°48'0 0.2
2015-Jun-26 09:33N 34°54' E 119°48'0 0.1
2015-Jun-26 06:27N 34°54' E 119°48'0 0.1
2015-Jun-26 05:33N 34°54' E 119°48'0 0.0
2015-Jun-26 04:33N 34°54' E 119°48'0 0.1
2015-Jun-25 22:11N 34°54' E 119°48'4 5.7
2015-Jun-25 21:30N 34°54' E 119°53'22811.2
2015-Jun-25 01:13N 37°46' E 122°59'1012.9
2015-Jun-25 00:28N 37°50' E 122°48'1313.1
2015-Jun-24 23:29N 37°56' E 122°33'1213.2
2015-Jun-24 22:33N 38°01' E 122°19'1313.2
2015-Jun-24 21:33N 38°06' E 122°04'1312.7
2015-Jun-24 20:33N 38°11' E 121°49'1712.7
2015-Jun-24 19:12N 38°19' E 121°30'4910.5
2015-Jun-24 14:33N 38°13' E 120°28'1413.3
2015-Jun-24 13:32N 38°01' E 120°19'1313.1
2015-Jun-24 12:33N 37°50' E 120°12'1211.6
2015-Jun-24 11:33N 37°38' E 120°12'4 4.2
2015-Jun-24 10:34N 37°39' E 120°17'0 0.0
2015-Jun-24 09:33N 37°39' E 120°17'0 0.0
2015-Jun-24 08:33N 37°39' E 120°17'0 0.0
2015-Jun-24 07:28N 37°39' E 120°17'0 0.0
2015-Jun-24 06:28N 37°39' E 120°17'0 0.0
2015-Jun-24 05:28N 37°39' E 120°17'0 0.0
2015-Jun-24 04:28N 37°39' E 120°17'0 0.0
2015-Jun-24 03:28N 37°39' E 120°17'0 0.0
2015-Jun-24 02:28N 37°39' E 120°17'0 0.0
2015-Jun-24 01:28N 37°39' E 120°17'0 0.0
2015-Jun-24 00:22N 37°39' E 120°17'0 0.0
2015-Jun-23 23:28N 37°39' E 120°17'0 0.0
2015-Jun-23 22:22N 37°39' E 120°17'0 0.0
2015-Jun-23 20:28N 37°39' E 120°17'0 0.0
2015-Jun-23 19:28N 37°39' E 120°17'0 0.1
2015-Jun-23 19:04N 37°39' E 120°17'0 0.0
2015-Jun-22 19:28N 37°39' E 120°17'0 0.0
2015-Jun-22 18:28N 37°39' E 120°17'0 0.0
2015-Jun-22 17:28N 37°39' E 120°17'0 0.0
2015-Jun-22 16:28N 37°39' E 120°17'0 0.0
2015-Jun-22 15:28N 37°39' E 120°17'0 0.0
2015-Jun-22 14:28N 37°39' E 120°17'0 0.0
2015-Jun-22 13:28N 37°39' E 120°17'0 0.0
2015-Jun-22 12:28N 37°39' E 120°17'  

Dump ship's entire track history